Time;durP1;ratioP1;P1;durP2;ratioP2;P2;SDS_P1;SDS_P2;PMS_P1;PMS_P2;Temp;Humidity;BMP_temperature;BMP_pressure;BME280_temperature;BME280_humidity;BME280_pressure;Samples;Min_cycle;Max_cycle;Signal;HPM_P1;HPM_P2
2021/07/18 00:01:04;;;;;;;9.63;5.28;;;;;;;21.11;74.59;102234.25;5020606;28;20037;-82
2021/07/18 00:03:29;;;;;;;11.23;5.35;;;;;;;21.08;74.59;102230.03;5023788;28;20034;-82
2021/07/18 00:05:55;;;;;;;7.25;5.05;;;;;;;20.95;74.59;102223.72;5022633;28;20026;-82
2021/07/18 00:08:21;;;;;;;7.72;4.93;;;;;;;20.89;75.23;102235.53;5024770;28;20046;-82
2021/07/18 00:10:47;;;;;;;9.80;5.45;;;;;;;20.76;74.70;102198.06;5025905;28;20017;-82
2021/07/18 00:13:12;;;;;;;10.50;5.05;;;;;;;20.87;74.65;102213.84;5025562;28;20030;-82
2021/07/18 00:15:38;;;;;;;9.38;5.20;;;;;;;20.98;74.86;102224.16;5027350;28;20044;-82
2021/07/18 00:18:04;;;;;;;8.50;5.15;;;;;;;20.98;74.62;102205.00;5014554;28;20032;-83
2021/07/18 00:20:29;;;;;;;13.20;5.50;;;;;;;20.94;74.68;102206.50;5002244;28;20115;-83
2021/07/18 00:22:54;;;;;;;11.25;4.88;;;;;;;20.99;74.71;102220.38;5006041;28;20867;-82
2021/07/18 00:25:20;;;;;;;8.35;4.97;;;;;;;21.01;74.56;102217.41;5012725;28;20032;-83
2021/07/18 00:27:45;;;;;;;7.03;4.88;;;;;;;20.96;74.46;102217.25;5015782;28;20037;-83
2021/07/18 00:30:11;;;;;;;10.25;5.53;;;;;;;20.99;74.19;102220.38;5011311;28;20116;-83
2021/07/18 00:32:37;;;;;;;8.02;4.78;;;;;;;20.98;73.93;102209.63;4993872;28;20045;-82
2021/07/18 00:35:02;;;;;;;7.82;4.70;;;;;;;20.93;74.19;102213.03;5016273;28;20633;-83
2021/07/18 00:37:28;;;;;;;8.20;4.82;;;;;;;20.91;73.65;102215.13;5009510;28;20038;-83
2021/07/18 00:39:53;;;;;;;10.60;4.68;;;;;;;20.76;74.07;102203.53;5011019;28;20480;-82
2021/07/18 00:42:19;;;;;;;9.63;4.65;;;;;;;20.77;74.27;102213.41;5012750;28;20443;-82
2021/07/18 00:44:45;;;;;;;10.55;4.55;;;;;;;20.53;73.45;102168.34;5013230;28;20144;-82
2021/07/18 00:47:12;;;;;;;8.32;4.32;;;;;;;20.73;73.54;102223.09;4997461;28;20064;-81
2021/07/18 00:49:37;;;;;;;9.23;4.68;;;;;;;20.80;72.61;102210.28;5012002;28;20026;-82
2021/07/18 00:52:04;;;;;;;8.45;4.65;;;;;;;20.76;72.58;102209.84;5016070;28;20127;-81
2021/07/18 00:54:29;;;;;;;11.77;4.68;;;;;;;20.70;72.92;102205.22;5018357;28;20493;-80
2021/07/18 00:56:57;;;;;;;13.40;5.05;;;;;;;20.82;72.81;102205.44;5007857;28;20155;-83
2021/07/18 00:59:23;;;;;;;8.35;4.60;;;;;;;20.72;72.63;102207.72;5024728;28;20435;-81
2021/07/18 01:01:49;;;;;;;8.18;4.40;;;;;;;20.71;72.96;102200.59;5013275;28;20030;-82
2021/07/18 01:04:14;;;;;;;8.95;4.30;;;;;;;20.69;72.99;102202.69;4993943;28;20080;-81
2021/07/18 01:06:40;;;;;;;8.20;4.15;;;;;;;20.70;72.80;102209.84;4993379;28;20033;-82
2021/07/18 01:09:05;;;;;;;8.82;4.30;;;;;;;20.50;72.93;102196.09;4999757;28;20026;-79
2021/07/18 01:11:31;;;;;;;9.30;4.60;;;;;;;20.46;72.98;102195.69;5014154;28;21628;-83
2021/07/18 01:13:56;;;;;;;8.60;3.80;;;;;;;20.41;73.04;102190.00;5013072;28;20053;-80
2021/07/18 01:16:22;;;;;;;13.52;4.68;;;;;;;20.37;73.04;102194.16;5007959;28;20524;-80
2021/07/18 01:18:47;;;;;;;9.45;4.25;;;;;;;20.39;72.40;102181.97;5020802;28;20033;-81
2021/07/18 01:21:13;;;;;;;8.82;4.70;;;;;;;20.38;72.09;102169.38;5017474;28;20037;-82
2021/07/18 01:23:40;;;;;;;7.95;4.25;;;;;;;20.43;72.02;102175.06;5004964;28;20038;-82
2021/07/18 01:26:05;;;;;;;8.38;3.55;;;;;;;20.46;71.65;102172.97;5018203;28;20156;-82
2021/07/18 01:28:31;;;;;;;9.77;4.38;;;;;;;20.46;71.21;102171.09;5015655;28;20037;-82
2021/07/18 01:30:56;;;;;;;10.80;4.00;;;;;;;20.33;71.56;102154.66;5002600;28;20116;-82
2021/07/18 01:33:22;;;;;;;8.38;4.40;;;;;;;20.29;71.33;102147.94;5019084;28;20014;-81
2021/07/18 01:35:47;;;;;;;8.05;4.20;;;;;;;20.38;71.34;102163.09;5020664;28;20036;-82
2021/07/18 01:38:14;;;;;;;8.60;4.07;;;;;;;20.48;71.24;102177.19;5019287;28;20392;-82
2021/07/18 01:40:40;;;;;;;8.75;4.50;;;;;;;20.40;71.61;102172.75;5020640;28;20318;-82
2021/07/18 01:43:05;;;;;;;8.00;4.40;;;;;;;20.19;72.29;102164.69;5030528;28;20065;-82
2021/07/18 01:45:31;;;;;;;9.15;4.43;;;;;;;20.16;72.44;102159.66;5018872;28;20055;-82
2021/07/18 01:47:56;;;;;;;8.50;4.65;;;;;;;20.11;72.87;102171.22;5020760;28;20792;-82
2021/07/18 01:50:22;;;;;;;7.38;4.13;;;;;;;20.10;72.94;102165.94;5016969;28;20037;-82
2021/07/18 01:52:48;;;;;;;11.27;4.60;;;;;;;20.01;72.83;102165.28;5020519;28;20036;-82
2021/07/18 01:55:15;;;;;;;10.23;4.53;;;;;;;19.83;72.92;102126.78;5018389;28;20048;-81
2021/07/18 01:57:41;;;;;;;8.57;4.30;;;;;;;20.02;72.66;102156.03;4992411;28;20029;-82
2021/07/18 02:00:09;;;;;;;8.65;4.30;;;;;;;19.99;72.60;102151.00;5011229;28;20053;-82
2021/07/18 02:02:35;;;;;;;8.63;4.20;;;;;;;20.08;72.52;102168.03;5010568;28;20022;-81
2021/07/18 02:05:00;;;;;;;11.13;4.40;;;;;;;20.06;72.35;102162.78;5010075;28;20030;-82
2021/07/18 02:07:27;;;;;;;8.93;4.00;;;;;;;20.13;71.92;102163.63;4999367;28;20891;-81
2021/07/18 02:09:54;;;;;;;7.60;4.07;;;;;;;20.02;71.89;102141.56;4996399;28;20022;-81
2021/07/18 02:12:19;;;;;;;7.45;4.00;;;;;;;20.01;71.72;102146.19;4996046;28;20033;-81
2021/07/18 02:14:45;;;;;;;11.02;5.28;;;;;;;20.04;71.94;102161.31;4995035;28;20110;-80
2021/07/18 02:17:10;;;;;;;8.00;4.22;;;;;;;19.91;71.99;102146.56;5007462;28;20026;-80
2021/07/18 02:19:36;;;;;;;11.40;4.20;;;;;;;20.00;71.87;102160.84;4991863;28;20034;-80
2021/07/18 02:22:01;;;;;;;9.93;4.38;;;;;;;19.93;72.24;102143.63;5008770;28;20022;-82
2021/07/18 02:24:27;;;;;;;7.97;4.07;;;;;;;19.94;72.45;102151.59;5015146;28;20096;-81
2021/07/18 02:26:53;;;;;;;8.48;4.13;;;;;;;19.93;72.55;102149.09;5011832;28;20061;-82
2021/07/18 02:29:18;;;;;;;9.65;3.78;;;;;;;19.85;72.94;102154.72;5003749;28;20515;-82
2021/07/18 02:31:44;;;;;;;10.27;4.50;;;;;;;19.74;73.00;102143.34;5012310;28;20030;-82
2021/07/18 02:34:09;;;;;;;11.27;4.28;;;;;;;19.64;73.13;102129.19;4997689;28;20083;-82
2021/07/18 02:36:34;;;;;;;11.00;4.40;;;;;;;19.73;73.15;102143.53;5005182;28;20021;-81
2021/07/18 02:39:00;;;;;;;8.18;4.32;;;;;;;19.71;72.98;102145.63;5010078;28;20026;-81
2021/07/18 02:41:27;;;;;;;8.05;3.83;;;;;;;19.57;73.51;102141.94;4992534;28;20064;-81
2021/07/18 02:43:53;;;;;;;8.27;4.05;;;;;;;19.46;74.11;102137.06;5007174;28;20030;-81
2021/07/18 02:46:19;;;;;;;8.68;4.00;;;;;;;19.46;73.84;102142.53;5007869;28;20104;-81
2021/07/18 02:48:44;;;;;;;7.82;3.95;;;;;;;19.39;74.06;102136.19;4992697;28;20087;-82
2021/07/18 02:51:09;;;;;;;8.38;4.43;;;;;;;19.43;73.97;102135.59;5023055;28;20698;-82
2021/07/18 02:53:35;;;;;;;7.93;4.13;;;;;;;19.33;74.33;102127.75;5003769;28;20527;-82
2021/07/18 02:56:01;;;;;;;8.93;4.05;;;;;;;19.29;74.42;102137.41;5008163;28;20025;-82
2021/07/18 02:58:26;;;;;;;8.07;3.58;;;;;;;19.22;74.67;102130.22;4988624;28;20040;-81
2021/07/18 03:00:52;;;;;;;6.90;4.10;;;;;;;19.23;74.80;102135.44;5005097;28;20053;-81
2021/07/18 03:03:20;;;;;;;6.63;4.03;;;;;;;19.19;74.91;102136.91;5021005;28;20026;-81
2021/07/18 03:05:47;;;;;;;12.48;4.45;;;;;;;19.19;74.71;102139.63;5027224;28;20492;-81
2021/07/18 03:08:12;;;;;;;8.00;4.68;;;;;;;19.19;74.80;102136.06;5011242;28;20033;-82
2021/07/18 03:10:38;;;;;;;8.05;4.10;;;;;;;19.09;74.62;102125.50;5008209;28;20791;-82
2021/07/18 03:13:03;;;;;;;8.05;4.10;;;;;;;19.11;74.45;102126.16;5024531;28;20032;-82
2021/07/18 03:15:29;;;;;;;9.68;4.40;;;;;;;19.05;74.61;102132.38;5026441;28;20385;-82
2021/07/18 03:17:54;;;;;;;10.32;4.70;;;;;;;18.72;75.48;102113.88;5023442;28;20025;-82
2021/07/18 03:20:20;;;;;;;9.50;3.90;;;;;;;18.80;75.49;102132.84;5017364;28;20040;-82
2021/07/18 03:22:46;;;;;;;11.32;3.97;;;;;;;18.75;75.81;102140.75;5011284;28;20022;-80
2021/07/18 03:25:13;;;;;;;7.13;3.92;;;;;;;18.67;76.35;102135.41;5011771;28;20021;-81
2021/07/18 03:27:39;;;;;;;10.50;4.00;;;;;;;18.74;76.15;102149.94;5008184;28;20096;-82
2021/07/18 03:30:08;;;;;;;10.60;4.25;;;;;;;18.79;75.74;102141.22;5014530;28;20022;-81
2021/07/18 03:32:33;;;;;;;9.25;3.63;;;;;;;18.86;75.57;102133.94;5007341;28;20034;-82
2021/07/18 03:34:59;;;;;;;8.95;4.03;;;;;;;18.83;75.36;102131.59;5016548;28;20152;-81
2021/07/18 03:37:24;;;;;;;9.20;3.90;;;;;;;18.84;75.27;102142.31;5011747;28;20025;-82
2021/07/18 03:39:49;;;;;;;8.50;4.28;;;;;;;18.84;75.22;102147.75;4993342;28;20514;-82
2021/07/18 03:42:15;;;;;;;8.02;3.88;;;;;;;18.52;75.14;102091.91;5017558;28;20029;-81
2021/07/18 03:44:40;;;;;;;9.15;4.20;;;;;;;18.85;75.28;102149.44;4996112;28;20038;-81
2021/07/18 03:47:06;;;;;;;7.55;4.03;;;;;;;18.80;75.09;102135.56;5006108;28;20029;-82
2021/07/18 03:49:32;;;;;;;11.27;4.20;;;;;;;18.79;75.08;102143.94;5012004;28;20129;-82
2021/07/18 03:51:58;;;;;;;6.25;3.97;;;;;;;18.74;75.09;102149.94;5006635;28;20424;-82
2021/07/18 03:54:23;;;;;;;9.73;4.30;;;;;;;18.57;74.59;102138.47;5012315;28;20033;-82
2021/07/18 03:56:49;;;;;;;8.38;4.10;;;;;;;18.39;75.56;102144.38;4996056;28;20129;-82
2021/07/18 03:59:14;;;;;;;10.15;4.07;;;;;;;18.32;76.13;102150.78;5011708;28;20030;-82
2021/07/18 04:01:40;;;;;;;10.85;4.50;;;;;;;18.22;76.49;102140.22;5013890;28;20026;-82
2021/07/18 04:04:05;;;;;;;8.80;4.43;;;;;;;18.17;77.20;102148.09;5012632;28;20030;-81
2021/07/18 04:06:30;;;;;;;8.93;4.10;;;;;;;18.09;77.60;102134.63;5017261;28;20013;-82
2021/07/18 04:08:56;;;;;;;7.10;4.13;;;;;;;18.17;77.54;102154.38;5021115;28;20034;-82
2021/07/18 04:11:21;;;;;;;9.52;3.90;;;;;;;18.10;77.84;102137.16;5021458;28;20034;-81
2021/07/18 04:13:47;;;;;;;12.00;4.32;;;;;;;18.24;77.42;102147.16;5005311;28;20022;-82
2021/07/18 04:16:12;;;;;;;9.93;5.18;;;;;;;18.25;77.78;102145.25;5002538;28;20698;-82
2021/07/18 04:18:38;;;;;;;8.95;4.60;;;;;;;18.21;77.51;102131.22;5022854;28;20030;-82
2021/07/18 04:21:03;;;;;;;7.10;4.00;;;;;;;18.21;77.42;102116.75;5023088;28;20021;-82
2021/07/18 04:23:29;;;;;;;8.57;3.95;;;;;;;18.45;76.95;102142.75;5005497;28;20033;-81
2021/07/18 04:25:54;;;;;;;6.30;3.50;;;;;;;18.32;77.07;102123.56;5005887;28;20033;-82
2021/07/18 04:28:20;;;;;;;9.93;4.20;;;;;;;18.46;76.80;102141.72;5018873;28;20470;-82
2021/07/18 04:30:45;;;;;;;8.85;3.65;;;;;;;18.36;76.83;102136.56;5021489;28;20034;-82
2021/07/18 04:33:10;;;;;;;11.40;4.10;;;;;;;18.30;76.62;102131.06;5026782;28;20049;-82
2021/07/18 04:35:36;;;;;;;10.82;4.10;;;;;;;18.23;76.17;102111.94;5017568;28;20049;-82
2021/07/18 04:38:06;;;;;;;9.93;3.97;;;;;;;18.33;76.32;102142.41;5018928;28;20030;-81
2021/07/18 04:40:33;;;;;;;11.02;3.88;;;;;;;18.36;76.58;102146.63;5018609;28;20053;-82
2021/07/18 04:42:58;;;;;;;8.88;4.10;;;;;;;18.27;77.17;102134.19;5035127;28;20087;-82
2021/07/18 04:45:24;;;;;;;6.80;3.80;;;;;;;18.20;77.35;102142.28;5023715;28;20093;-82
2021/07/18 04:47:52;;;;;;;9.93;3.90;;;;;;;18.20;77.52;102147.72;5025580;28;20434;-81
2021/07/18 04:50:20;;;;;;;14.23;4.07;;;;;;;18.15;77.27;102142.00;5019228;28;20853;-82
2021/07/18 04:52:46;;;;;;;10.55;4.03;;;;;;;18.18;77.26;102139.75;5021166;28;20032;-82
2021/07/18 04:55:13;;;;;;;10.18;3.90;;;;;;;18.11;77.70;102138.00;5022376;28;20081;-81
2021/07/18 04:57:38;;;;;;;9.05;4.30;;;;;;;18.08;77.76;102141.09;5006728;28;20055;-82
2021/07/18 05:00:17;;;;;;;9.85;3.80;;;;;;;18.04;77.57;102126.19;5018955;28;20096;-82
2021/07/18 05:02:43;;;;;;;5.88;3.45;;;;;;;18.10;77.51;102134.44;5017466;28;20022;-82
2021/07/18 05:05:13;;;;;;;10.27;4.03;;;;;;;17.95;77.76;102128.19;5024172;28;20615;-82
2021/07/18 05:07:50;;;;;;;8.88;4.13;;;;;;;17.98;77.67;102128.63;5006369;28;20541;-82
2021/07/18 05:10:20;;;;;;;8.77;3.88;;;;;;;17.98;77.63;102128.63;5024722;28;20030;-82
2021/07/18 05:12:46;;;;;;;10.60;4.03;;;;;;;18.02;77.59;102131.84;5016625;28;20443;-82
2021/07/18 05:15:12;;;;;;;8.32;4.03;;;;;;;18.08;77.92;102128.34;5020484;28;20532;-82
2021/07/18 05:17:38;;;;;;;8.43;3.92;;;;;;;18.11;77.65;102124.38;5016898;28;20026;-82
2021/07/18 05:20:05;;;;;;;9.43;3.80;;;;;;;18.18;77.45;102125.31;5022300;28;20124;-82
2021/07/18 05:22:30;;;;;;;13.27;4.10;;;;;;;18.19;77.32;102116.09;5035275;28;20482;-82
2021/07/18 05:24:56;;;;;;;10.57;4.10;;;;;;;18.19;77.55;102122.38;5004565;28;20196;-82
2021/07/18 05:27:21;;;;;;;7.95;4.00;;;;;;;18.21;77.52;102128.47;5035657;28;20036;-81
2021/07/18 05:29:47;;;;;;;10.32;4.28;;;;;;;18.27;77.25;102121.41;5021723;28;20030;-82
2021/07/18 05:32:13;;;;;;;10.05;3.95;;;;;;;18.34;77.17;102122.34;5016865;28;20034;-82
2021/07/18 05:34:38;;;;;;;9.10;3.70;;;;;;;18.40;77.29;102132.44;5018361;28;20034;-82
2021/07/18 05:37:05;;;;;;;9.20;3.70;;;;;;;18.48;76.59;102131.47;5018612;28;20037;-82
2021/07/18 05:39:31;;;;;;;10.40;4.13;;;;;;;18.50;76.64;102136.72;5003606;28;20030;-82
2021/07/18 05:41:57;;;;;;;7.53;3.40;;;;;;;18.43;76.40;102132.03;5003468;28;20431;-81
2021/07/18 05:44:22;;;;;;;7.28;4.05;;;;;;;18.40;76.46;102128.88;5024962;28;20026;-82
2021/07/18 05:46:47;;;;;;;7.60;4.00;;;;;;;18.38;76.96;102136.41;5018435;28;20060;-81
2021/07/18 05:49:13;;;;;;;6.65;3.78;;;;;;;18.28;77.02;102122.25;5017959;28;20097;-82
2021/07/18 05:51:38;;;;;;;8.93;5.10;;;;;;;18.45;76.96;102134.59;5021869;28;20032;-81
2021/07/18 05:54:04;;;;;;;7.93;4.20;;;;;;;18.49;76.85;102124.97;5018677;28;20113;-82
2021/07/18 05:56:29;;;;;;;10.43;6.13;;;;;;;18.60;76.59;102137.22;5004740;28;20098;-82
2021/07/18 05:58:54;;;;;;;10.88;4.20;;;;;;;18.57;76.21;102121.28;5027302;28;20058;-82
2021/07/18 06:01:20;;;;;;;10.77;4.47;;;;;;;18.60;76.04;102127.19;5004215;28;20504;-82
2021/07/18 06:03:45;;;;;;;10.82;4.47;;;;;;;18.60;76.20;102135.38;5003573;28;20084;-82
2021/07/18 06:06:11;;;;;;;8.10;4.30;;;;;;;18.52;76.22;102134.63;5018413;28;20018;-82
2021/07/18 06:08:36;;;;;;;11.82;4.38;;;;;;;18.49;76.95;102144.03;5024629;28;20021;-82
2021/07/18 06:11:02;;;;;;;7.80;3.97;;;;;;;18.61;76.79;102147.94;5019783;28;20044;-82
2021/07/18 06:13:27;;;;;;;7.32;4.25;;;;;;;18.70;76.10;102140.47;5014665;28;20109;-82
2021/07/18 06:15:54;;;;;;;9.68;4.50;;;;;;;18.88;75.49;102129.13;5016667;28;20046;-82
2021/07/18 06:18:19;;;;;;;10.98;4.70;;;;;;;19.03;74.70;102126.31;4997864;28;20030;-82
2021/07/18 06:20:45;;;;;;;6.80;4.25;;;;;;;19.11;74.55;102134.34;5006103;28;20074;-82
2021/07/18 06:23:10;;;;;;;9.73;4.35;;;;;;;19.15;74.81;102134.78;5007683;28;20403;-81
2021/07/18 06:25:36;;;;;;;11.35;4.03;;;;;;;19.31;74.20;102142.63;5006481;28;20383;-82
2021/07/18 06:28:01;;;;;;;9.02;5.00;;;;;;;19.21;73.40;102102.13;5005552;28;20484;-82
2021/07/18 06:30:26;;;;;;;7.82;4.30;;;;;;;19.46;73.42;102143.38;5007170;28;20021;-81
2021/07/18 06:32:52;;;;;;;7.82;4.00;;;;;;;19.53;73.65;102144.25;5006166;28;20032;-81
2021/07/18 06:35:17;;;;;;;9.30;4.55;;;;;;;19.66;73.84;102153.53;4998326;28;20021;-81
2021/07/18 06:37:43;;;;;;;7.50;4.28;;;;;;;19.79;73.21;102136.41;5007696;28;20032;-82
2021/07/18 06:40:10;;;;;;;6.88;4.38;;;;;;;19.97;72.71;102150.34;5016379;28;20026;-81
2021/07/18 06:42:36;;;;;;;9.07;4.18;;;;;;;19.99;72.84;102137.34;5010223;28;20030;-80
2021/07/18 06:45:02;;;;;;;10.20;4.65;;;;;;;20.04;72.91;102140.31;4994934;28;20105;-81
2021/07/18 06:47:28;;;;;;;9.55;4.65;;;;;;;20.01;72.79;102126.22;4994476;28;20061;-81
2021/07/18 06:49:54;;;;;;;8.65;4.13;;;;;;;20.10;72.89;102138.63;5018132;28;20033;-81
2021/07/18 06:52:20;;;;;;;10.27;4.78;;;;;;;20.08;72.87;102132.53;5012273;28;20568;-80
2021/07/18 06:54:45;;;;;;;8.80;4.38;;;;;;;20.25;72.92;102139.31;5015046;28;20102;-81
2021/07/18 06:57:11;;;;;;;10.38;4.90;;;;;;;20.25;72.39;102127.56;5007951;28;20033;-82
2021/07/18 06:59:36;;;;;;;10.68;4.45;;;;;;;20.38;71.72;102128.41;5013250;28;20025;-80
2021/07/18 07:02:02;;;;;;;12.13;5.25;;;;;;;20.45;71.82;102136.59;5008198;28;20040;-80
2021/07/18 07:04:27;;;;;;;15.20;4.95;;;;;;;20.54;71.71;102140.03;5028047;28;20083;-80
2021/07/18 07:06:53;;;;;;;13.02;5.28;;;;;;;20.63;71.14;102144.22;5024803;28;20037;-81
2021/07/18 07:09:18;;;;;;;12.50;4.65;;;;;;;20.62;70.79;102148.84;5017885;28;20404;-80
2021/07/18 07:11:44;;;;;;;8.90;4.43;;;;;;;20.57;70.63;102132.25;5028861;28;20037;-82
2021/07/18 07:14:09;;;;;;;9.88;4.80;;;;;;;20.66;70.75;102138.34;4999903;28;20044;-81
2021/07/18 07:16:36;;;;;;;12.73;5.07;;;;;;;20.69;70.55;102143.38;5022064;28;20018;-81
2021/07/18 07:19:02;;;;;;;10.93;4.22;;;;;;;20.73;70.29;102143.81;5012138;28;20022;-81
2021/07/18 07:21:28;;;;;;;8.70;4.82;;;;;;;20.86;70.04;102143.81;5010488;28;20800;-82
2021/07/18 07:23:53;;;;;;;10.00;5.03;;;;;;;20.86;70.30;102141.09;5001076;28;20535;-81
2021/07/18 07:26:19;;;;;;;9.90;4.40;;;;;;;20.76;70.12;102135.19;5007854;28;20530;-80
2021/07/18 07:28:44;;;;;;;10.25;4.78;;;;;;;20.88;70.33;102146.31;5005915;28;20385;-81
2021/07/18 07:31:10;;;;;;;9.05;4.30;;;;;;;20.89;70.47;102143.41;5022102;28;20034;-81
2021/07/18 07:33:35;;;;;;;9.30;4.85;;;;;;;20.94;70.69;102140.88;5011038;28;20022;-81
2021/07/18 07:36:02;;;;;;;10.52;5.10;;;;;;;21.16;70.78;102154.31;5009231;28;20089;-80
2021/07/18 07:38:28;;;;;;;10.52;4.85;;;;;;;21.21;70.28;102146.31;4991002;28;20138;-80
2021/07/18 07:40:53;;;;;;;5.82;4.20;;;;;;;21.15;70.13;102141.69;4992077;28;20038;-80
2021/07/18 07:43:19;;;;;;;12.98;4.95;;;;;;;21.12;70.49;102153.91;5007164;28;20037;-81
2021/07/18 07:45:44;;;;;;;10.57;5.07;;;;;;;21.20;70.83;102147.38;5009298;28;20037;-78
2021/07/18 07:48:10;;;;;;;8.98;4.93;;;;;;;21.25;70.38;102144.84;5025502;28;20041;-80
2021/07/18 07:50:36;;;;;;;11.10;4.95;;;;;;;21.39;70.36;102154.72;5014257;28;20087;-80
2021/07/18 07:53:02;;;;;;;11.27;4.65;;;;;;;21.50;70.04;102150.50;5013563;28;20033;-82
2021/07/18 07:55:29;;;;;;;10.00;4.90;;;;;;;21.54;70.10;102153.63;5012939;28;20507;-80
2021/07/18 07:57:54;;;;;;;9.00;4.75;;;;;;;21.56;69.60;102148.78;5011259;28;20388;-79
2021/07/18 08:00:22;;;;;;;9.88;5.38;;;;;;;21.62;69.52;102156.13;5015571;28;20059;-80
2021/07/18 08:02:49;;;;;;;13.55;6.45;;;;;;;21.68;69.58;102152.53;5015402;28;20490;-79
2021/07/18 08:05:16;;;;;;;10.38;4.75;;;;;;;21.66;69.17;102143.69;5012299;28;20163;-79
2021/07/18 08:07:41;;;;;;;8.38;4.95;;;;;;;21.75;69.23;102153.34;5010221;28;20038;-80
2021/07/18 08:10:10;;;;;;;9.85;4.90;;;;;;;21.87;69.51;102154.34;5010103;28;20087;-81
2021/07/18 08:12:35;;;;;;;13.13;5.57;;;;;;;22.02;68.30;102150.50;5021835;28;20494;-80
2021/07/18 08:15:02;;;;;;;9.60;4.93;;;;;;;22.10;67.67;102147.53;5013058;28;20085;-81
2021/07/18 08:17:27;;;;;;;8.23;4.82;;;;;;;22.11;68.25;102146.44;5014323;28;20115;-81
2021/07/18 08:19:52;;;;;;;10.68;5.30;;;;;;;22.12;68.38;102148.13;5004455;28;20034;-80
2021/07/18 08:22:18;;;;;;;8.73;5.10;;;;;;;22.10;68.76;102145.63;5012401;28;20101;-81
2021/07/18 08:24:43;;;;;;;8.73;5.38;;;;;;;22.32;68.22;102153.53;4998751;28;20036;-79
2021/07/18 08:27:09;;;;;;;8.80;4.65;;;;;;;22.44;67.87;102143.56;5017262;28;20053;-78
2021/07/18 08:29:34;;;;;;;9.85;5.55;;;;;;;22.50;67.66;102147.31;5019001;28;20025;-79
2021/07/18 08:32:00;;;;;;;10.85;5.20;;;;;;;22.61;68.01;102141.09;5027614;28;20033;-78
2021/07/18 08:34:26;;;;;;;10.82;5.20;;;;;;;22.77;67.42;102151.50;5018048;28;20026;-79
2021/07/18 08:36:52;;;;;;;9.98;4.72;;;;;;;22.80;67.18;102134.59;5001232;28;20112;-78
2021/07/18 08:39:17;;;;;;;11.80;5.18;;;;;;;22.95;66.86;102136.19;5017860;28;20026;-79
2021/07/18 08:41:44;;;;;;;9.45;4.75;;;;;;;23.10;66.24;102127.63;5018849;28;20048;-79
2021/07/18 08:44:14;;;;;;;10.68;5.07;;;;;;;23.20;66.06;102138.91;5017645;28;20115;-79
2021/07/18 08:46:41;;;;;;;9.45;4.95;;;;;;;23.28;65.30;102127.63;5007255;28;20030;-78
2021/07/18 08:49:07;;;;;;;10.32;5.43;;;;;;;23.34;65.15;102129.50;5017396;28;20030;-79
2021/07/18 08:51:34;;;;;;;10.75;5.78;;;;;;;23.57;64.85;102127.97;5014660;28;20026;-78
2021/07/18 08:54:00;;;;;;;9.70;5.22;;;;;;;23.68;64.20;102132.66;5017975;28;20030;-78
2021/07/18 08:56:28;;;;;;;13.10;5.40;;;;;;;23.73;63.77;102135.59;4999938;28;20026;-79
2021/07/18 08:58:53;;;;;;;12.25;5.82;;;;;;;23.88;63.31;102132.47;5027803;28;20029;-79
2021/07/18 09:01:19;;;;;;;9.82;5.60;;;;;;;24.00;63.78;102121.53;4999396;28;20037;-79
2021/07/18 09:03:46;;;;;;;11.27;5.80;;;;;;;24.18;63.34;102128.88;5015220;28;20065;-79
2021/07/18 09:06:12;;;;;;;12.50;6.55;;;;;;;24.32;62.41;102119.38;5012069;28;20441;-78
2021/07/18 09:08:48;;;;;;;11.82;6.38;;;;;;;24.42;62.22;102102.31;5016968;28;20037;-78
2021/07/18 09:11:22;;;;;;;11.10;5.68;;;;;;;24.55;61.88;102122.19;5017362;28;20637;-79
2021/07/18 09:14:03;;;;;;;12.88;6.25;;;;;;;24.70;61.96;102109.91;5016296;28;20033;-79
2021/07/18 09:16:34;;;;;;;8.52;5.13;;;;;;;24.79;61.54;102109.34;5018010;28;20025;-78
2021/07/18 09:19:22;;;;;;;12.25;5.82;;;;;;;24.88;60.78;102107.06;5014687;28;20034;-78
2021/07/18 09:21:49;;;;;;;12.43;6.10;;;;;;;24.96;60.12;102103.94;5019043;28;20435;-79
2021/07/18 09:24:22;;;;;;;13.85;5.40;;;;;;;25.21;59.72;102106.47;5014310;28;20058;-78
2021/07/18 09:27:20;;;;;;;7.13;5.55;;;;;;;25.24;59.81;102096.88;5009497;28;20033;-78
2021/07/18 09:29:53;;;;;;;12.10;6.18;;;;;;;25.38;59.47;102109.34;5019665;28;20068;-78
2021/07/18 09:32:22;;;;;;;11.30;5.57;;;;;;;25.42;59.22;102113.25;5018825;28;20037;-78
2021/07/18 09:34:57;;;;;;;11.25;5.78;;;;;;;25.61;58.62;102119.44;5013961;28;20029;-78
2021/07/18 09:37:25;;;;;;;12.88;6.00;;;;;;;25.63;58.31;102110.94;5015930;28;20053;-78
2021/07/18 09:40:15;;;;;;;14.65;6.22;;;;;;;25.64;58.39;102107.09;5015441;28;20100;-78
2021/07/18 09:42:44;;;;;;;9.82;6.07;;;;;;;25.72;58.04;102109.50;5017274;28;20026;-78
2021/07/18 09:45:18;;;;;;;10.23;5.88;;;;;;;25.82;58.75;102104.16;5017601;28;20030;-78
2021/07/18 09:48:19;;;;;;;13.75;6.32;;;;;;;26.00;58.33;102108.66;5011722;28;20022;-79
2021/07/18 09:50:45;;;;;;;10.52;6.10;;;;;;;26.01;58.18;102102.09;5030678;28;20084;-78
2021/07/18 09:53:15;;;;;;;10.57;6.20;;;;;;;26.20;57.42;102118.44;5013773;28;20053;-78
2021/07/18 09:56:08;;;;;;;12.27;5.93;;;;;;;26.23;56.99;102116.00;5016254;28;20105;-78
2021/07/18 09:58:36;;;;;;;13.68;7.15;;;;;;;26.38;56.13;102109.06;5014120;28;20408;-79
2021/07/18 10:01:03;;;;;;;11.48;6.78;;;;;;;26.45;56.30;102109.75;5007317;28;20022;-79
2021/07/18 10:03:29;;;;;;;10.23;6.18;;;;;;;26.55;56.74;102104.44;5011834;28;20088;-79
2021/07/18 10:06:05;;;;;;;12.23;6.18;;;;;;;26.72;56.04;102110.78;5011517;28;20033;-79
2021/07/18 10:08:31;;;;;;;12.52;6.72;;;;;;;26.80;55.73;102112.28;5011965;28;20032;-79
2021/07/18 10:10:56;;;;;;;10.63;5.80;;;;;;;26.95;54.83;102097.91;5011721;28;20112;-79
2021/07/18 10:13:22;;;;;;;13.00;6.22;;;;;;;27.01;54.00;102096.03;5009347;28;20026;-79
2021/07/18 10:15:48;;;;;;;12.00;5.78;;;;;;;27.08;54.78;102096.72;5010482;28;20021;-79
2021/07/18 10:18:14;;;;;;;14.18;6.35;;;;;;;27.11;55.38;102097.03;5011886;28;20468;-79
2021/07/18 10:20:39;;;;;;;11.73;6.40;;;;;;;27.18;55.36;102089.44;5012017;28;20041;-81
2021/07/18 10:23:06;;;;;;;9.48;6.25;;;;;;;27.21;55.65;102090.03;5010360;28;20051;-81
2021/07/18 10:25:32;;;;;;;13.70;6.10;;;;;;;27.44;55.31;102091.69;5009744;28;20022;-80
2021/07/18 10:27:58;;;;;;;8.82;5.75;;;;;;;27.49;55.22;102086.22;5013556;28;20045;-81
2021/07/18 10:30:24;;;;;;;14.50;6.32;;;;;;;27.49;54.98;102088.97;5013323;28;20029;-80
2021/07/18 10:32:52;;;;;;;11.60;6.13;;;;;;;27.40;54.25;102088.59;5024671;28;20026;-81
2021/07/18 10:35:19;;;;;;;14.40;6.65;;;;;;;27.44;53.95;102084.22;5011294;28;20120;-81
2021/07/18 10:37:44;;;;;;;13.73;6.03;;;;;;;27.50;53.55;102083.22;5007485;28;20029;-79
2021/07/18 10:40:15;;;;;;;10.13;6.03;;;;;;;27.71;53.25;102076.00;5013932;28;20038;-80
2021/07/18 10:42:41;;;;;;;15.40;6.70;;;;;;;27.88;53.11;102077.88;5008964;28;20032;-81
2021/07/18 10:45:19;;;;;;;10.25;6.60;;;;;;;27.91;53.55;102069.03;5009514;28;20029;-79
2021/07/18 10:48:03;;;;;;;12.43;5.80;;;;;;;27.93;53.68;102072.38;5013700;28;20026;-81
2021/07/18 10:50:44;;;;;;;10.30;6.00;;;;;;;27.88;53.72;102069.56;5013389;28;20029;-80
2021/07/18 10:53:21;;;;;;;9.15;5.93;;;;;;;28.09;53.24;102062.31;5015917;28;20101;-80
2021/07/18 10:55:48;;;;;;;11.27;5.85;;;;;;;28.24;53.54;102062.47;5012710;28;20061;-81
2021/07/18 10:58:38;;;;;;;9.25;5.28;;;;;;;28.34;51.96;102061.69;5015091;28;20079;-80
2021/07/18 11:01:24;;;;;;;10.55;6.00;;;;;;;28.40;51.19;102063.44;5015200;28;20097;-79
2021/07/18 11:03:49;;;;;;;9.23;5.57;;;;;;;28.50;51.17;102046.94;5008619;28;20038;-80
2021/07/18 11:06:22;;;;;;;9.30;5.72;;;;;;;28.65;51.43;102048.97;5013484;28;20047;-79
2021/07/18 11:09:14;;;;;;;9.90;5.45;;;;;;;28.75;50.68;102040.72;5012720;28;20030;-80
2021/07/18 11:11:52;;;;;;;10.35;5.50;;;;;;;28.92;49.82;102041.41;5010817;28;20017;-79
2021/07/18 11:14:22;;;;;;;12.85;5.68;;;;;;;28.91;49.62;102039.72;5010529;28;20034;-80
2021/07/18 11:16:58;;;;;;;12.30;5.10;;;;;;;28.69;49.39;102027.97;5013041;28;20026;-81
2021/07/18 11:19:39;;;;;;;10.55;5.28;;;;;;;28.85;50.36;102038.03;5010954;28;20033;-79
2021/07/18 11:22:05;;;;;;;10.85;5.68;;;;;;;29.04;49.35;102035.66;5013159;28;20065;-79